sensor_id;sensor_type;location;lat;lon;timestamp;pressure;altitude;pressure_sealevel;temperature;humidity
14393;BME280;7281;42.678;23.372;2022-12-16T00:01:27;94974.22;;;7.09;65.45
14393;BME280;7281;42.678;23.372;2022-12-16T00:03:56;94970.47;;;7.05;65.61
14393;BME280;7281;42.678;23.372;2022-12-16T00:06:25;94989.78;;;6.93;65.02
14393;BME280;7281;42.678;23.372;2022-12-16T00:08:52;94981.59;;;6.38;66.13
14393;BME280;7281;42.678;23.372;2022-12-16T00:11:20;94989.88;;;6.86;65.69
14393;BME280;7281;42.678;23.372;2022-12-16T00:13:47;94994.56;;;6.61;65.92
14393;BME280;7281;42.678;23.372;2022-12-16T00:16:17;94982.00;;;6.35;65.75
14393;BME280;7281;42.678;23.372;2022-12-16T00:18:45;94978.13;;;6.84;65.68
14393;BME280;7281;42.678;23.372;2022-12-16T00:21:13;94983.94;;;6.28;66.30
14393;BME280;7281;42.678;23.372;2022-12-16T00:23:40;94981.03;;;6.48;65.56
14393;BME280;7281;42.678;23.372;2022-12-16T00:26:09;94989.03;;;6.46;65.93
14393;BME280;7281;42.678;23.372;2022-12-16T00:28:37;94978.03;;;6.67;65.80
14393;BME280;7281;42.678;23.372;2022-12-16T00:31:05;94966.94;;;6.72;65.48
14393;BME280;7281;42.678;23.372;2022-12-16T00:33:32;94964.81;;;6.57;66.36
14393;BME280;7281;42.678;23.372;2022-12-16T00:36:00;94976.00;;;6.58;65.80
14393;BME280;7281;42.678;23.372;2022-12-16T00:38:27;94985.84;;;6.67;66.48
14393;BME280;7281;42.678;23.372;2022-12-16T00:40:54;95000.53;;;6.96;66.00
14393;BME280;7281;42.678;23.372;2022-12-16T00:43:22;94991.44;;;6.99;65.71
14393;BME280;7281;42.678;23.372;2022-12-16T00:45:49;94976.91;;;6.63;66.51
14393;BME280;7281;42.678;23.372;2022-12-16T00:48:18;94962.06;;;6.75;66.44
14393;BME280;7281;42.678;23.372;2022-12-16T00:50:49;94975.53;;;6.84;66.01
14393;BME280;7281;42.678;23.372;2022-12-16T00:53:18;94979.94;;;6.83;66.23
14393;BME280;7281;42.678;23.372;2022-12-16T00:55:45;94969.72;;;6.93;65.51
14393;BME280;7281;42.678;23.372;2022-12-16T00:58:12;94965.97;;;6.38;66.25
14393;BME280;7281;42.678;23.372;2022-12-16T01:00:39;94991.41;;;6.36;67.34
14393;BME280;7281;42.678;23.372;2022-12-16T01:03:06;94962.75;;;6.59;66.61
14393;BME280;7281;42.678;23.372;2022-12-16T01:05:37;94985.66;;;6.11;68.36
14393;BME280;7281;42.678;23.372;2022-12-16T01:08:04;94983.84;;;6.23;67.23
14393;BME280;7281;42.678;23.372;2022-12-16T01:10:30;94965.50;;;6.41;66.90
14393;BME280;7281;42.678;23.372;2022-12-16T01:12:57;94961.53;;;6.39;66.71
14393;BME280;7281;42.678;23.372;2022-12-16T01:15:24;94975.22;;;6.57;66.34
14393;BME280;7281;42.678;23.372;2022-12-16T01:17:51;94976.47;;;6.32;66.73
14393;BME280;7281;42.678;23.372;2022-12-16T01:20:18;94962.44;;;6.56;66.60
14393;BME280;7281;42.678;23.372;2022-12-16T01:22:45;94977.72;;;6.06;67.27
14393;BME280;7281;42.678;23.372;2022-12-16T01:25:12;94973.22;;;6.36;67.14
14393;BME280;7281;42.678;23.372;2022-12-16T01:27:38;94979.69;;;5.81;67.78
14393;BME280;7281;42.678;23.372;2022-12-16T01:30:06;94961.44;;;5.99;68.08
14393;BME280;7281;42.678;23.372;2022-12-16T01:32:35;94959.78;;;5.75;68.88
14393;BME280;7281;42.678;23.372;2022-12-16T01:35:02;94945.38;;;6.02;68.24
14393;BME280;7281;42.678;23.372;2022-12-16T01:37:43;94952.28;;;6.08;67.96
14393;BME280;7281;42.678;23.372;2022-12-16T01:40:22;94957.81;;;6.35;67.65
14393;BME280;7281;42.678;23.372;2022-12-16T01:42:50;94957.00;;;5.88;68.13
14393;BME280;7281;42.678;23.372;2022-12-16T01:45:36;94940.88;;;6.09;67.10
14393;BME280;7281;42.678;23.372;2022-12-16T01:48:31;94958.47;;;5.84;68.43
14393;BME280;7281;42.678;23.372;2022-12-16T01:51:22;94934.94;;;6.48;67.17
14393;BME280;7281;42.678;23.372;2022-12-16T01:53:53;94940.63;;;6.22;67.86
14393;BME280;7281;42.678;23.372;2022-12-16T01:56:24;94934.84;;;6.43;66.46
14393;BME280;7281;42.678;23.372;2022-12-16T01:58:54;94953.53;;;6.40;67.28
14393;BME280;7281;42.678;23.372;2022-12-16T02:01:21;94932.38;;;6.37;66.57
14393;BME280;7281;42.678;23.372;2022-12-16T02:03:49;94952.16;;;6.26;67.08
14393;BME280;7281;42.678;23.372;2022-12-16T02:06:19;94911.00;;;6.00;67.07
14393;BME280;7281;42.678;23.372;2022-12-16T02:08:52;94938.38;;;6.14;68.05
14393;BME280;7281;42.678;23.372;2022-12-16T02:20:08;94926.38;;;5.90;68.88
14393;BME280;7281;42.678;23.372;2022-12-16T02:36:43;94907.81;;;6.33;70.22
14393;BME280;7281;42.678;23.372;2022-12-16T02:44:53;94936.34;;;6.16;70.97
14393;BME280;7281;42.678;23.372;2022-12-16T02:47:13;94922.53;;;6.27;70.90
14393;BME280;7281;42.678;23.372;2022-12-16T02:52:12;94933.00;;;5.74;71.79
14393;BME280;7281;42.678;23.372;2022-12-16T02:54:40;94922.09;;;6.07;71.75
14393;BME280;7281;42.678;23.372;2022-12-16T02:57:31;94970.25;;;6.21;70.50
14393;BME280;7281;42.678;23.372;2022-12-16T03:00:07;94953.84;;;6.21;71.02
14393;BME280;7281;42.678;23.372;2022-12-16T03:05:32;94963.81;;;6.24;70.31
14393;BME280;7281;42.678;23.372;2022-12-16T03:08:04;94967.00;;;6.26;70.23
14393;BME280;7281;42.678;23.372;2022-12-16T03:10:56;94932.22;;;6.55;69.27
14393;BME280;7281;42.678;23.372;2022-12-16T03:13:24;94941.84;;;6.54;68.98
14393;BME280;7281;42.678;23.372;2022-12-16T03:15:54;94945.72;;;6.40;69.83
14393;BME280;7281;42.678;23.372;2022-12-16T03:18:24;94926.94;;;6.38;69.18
14393;BME280;7281;42.678;23.372;2022-12-16T03:20:54;94939.84;;;6.10;70.68
14393;BME280;7281;42.678;23.372;2022-12-16T03:23:30;94931.75;;;6.46;70.12
14393;BME280;7281;42.678;23.372;2022-12-16T03:26:02;94925.03;;;6.73;68.79
14393;BME280;7281;42.678;23.372;2022-12-16T03:28:54;94913.13;;;6.38;69.43
14393;BME280;7281;42.678;23.372;2022-12-16T03:31:42;94939.84;;;6.10;69.99
14393;BME280;7281;42.678;23.372;2022-12-16T03:36:51;94909.50;;;6.04;70.31
14393;BME280;7281;42.678;23.372;2022-12-16T03:39:20;94907.81;;;6.21;70.26
14393;BME280;7281;42.678;23.372;2022-12-16T03:41:50;94928.06;;;6.19;70.21
14393;BME280;7281;42.678;23.372;2022-12-16T03:44:20;94946.75;;;6.16;70.44
14393;BME280;7281;42.678;23.372;2022-12-16T03:46:47;94924.28;;;6.61;68.62
14393;BME280;7281;42.678;23.372;2022-12-16T03:49:14;94960.63;;;6.45;68.47
14393;BME280;7281;42.678;23.372;2022-12-16T03:51:41;94919.13;;;6.38;68.85
14393;BME280;7281;42.678;23.372;2022-12-16T03:54:08;94942.97;;;6.35;68.85
14393;BME280;7281;42.678;23.372;2022-12-16T03:56:35;94943.81;;;6.12;68.90
14393;BME280;7281;42.678;23.372;2022-12-16T03:59:02;94973.28;;;5.83;68.57
14393;BME280;7281;42.678;23.372;2022-12-16T04:01:29;94950.81;;;5.89;69.57
14393;BME280;7281;42.678;23.372;2022-12-16T04:03:56;94973.41;;;6.11;69.23
14393;BME280;7281;42.678;23.372;2022-12-16T04:06:23;94963.56;;;6.48;68.15
14393;BME280;7281;42.678;23.372;2022-12-16T04:08:50;94963.69;;;6.07;68.48
14393;BME280;7281;42.678;23.372;2022-12-16T04:11:17;94934.16;;;6.25;69.11
14393;BME280;7281;42.678;23.372;2022-12-16T04:14:02;94937.78;;;6.12;68.57
14393;BME280;7281;42.678;23.372;2022-12-16T04:16:47;94942.50;;;5.80;70.59
14393;BME280;7281;42.678;23.372;2022-12-16T04:19:35;94953.06;;;6.20;70.48
14393;BME280;7281;42.678;23.372;2022-12-16T04:22:25;94958.13;;;5.92;71.58
14393;BME280;7281;42.678;23.372;2022-12-16T04:25:21;94958.78;;;5.76;71.11
14393;BME280;7281;42.678;23.372;2022-12-16T04:27:48;94946.06;;;5.97;70.87
14393;BME280;7281;42.678;23.372;2022-12-16T04:30:17;94934.75;;;6.38;70.55
14393;BME280;7281;42.678;23.372;2022-12-16T04:32:50;94947.75;;;6.38;69.68
14393;BME280;7281;42.678;23.372;2022-12-16T04:35:39;94941.63;;;6.09;71.67
14393;BME280;7281;42.678;23.372;2022-12-16T04:38:24;94932.56;;;6.58;69.64
14393;BME280;7281;42.678;23.372;2022-12-16T04:41:10;94963.34;;;6.50;69.77
14393;BME280;7281;42.678;23.372;2022-12-16T04:43:56;94950.72;;;6.81;69.70
14393;BME280;7281;42.678;23.372;2022-12-16T04:46:42;94911.56;;;6.76;68.70
14393;BME280;7281;42.678;23.372;2022-12-16T04:49:27;94909.91;;;6.98;68.89
14393;BME280;7281;42.678;23.372;2022-12-16T04:52:13;94923.69;;;7.10;67.74
14393;BME280;7281;42.678;23.372;2022-12-16T04:54:58;94934.97;;;7.16;67.99
14393;BME280;7281;42.678;23.372;2022-12-16T04:57:49;94940.72;;;7.30;67.31
14393;BME280;7281;42.678;23.372;2022-12-16T05:00:35;94926.13;;;6.89;69.19
14393;BME280;7281;42.678;23.372;2022-12-16T05:03:21;94943.06;;;6.63;70.17
14393;BME280;7281;42.678;23.372;2022-12-16T05:06:07;94951.97;;;6.79;69.24
14393;BME280;7281;42.678;23.372;2022-12-16T05:08:53;94945.25;;;6.94;69.24
14393;BME280;7281;42.678;23.372;2022-12-16T05:11:39;94929.09;;;6.81;68.18
14393;BME280;7281;42.678;23.372;2022-12-16T05:14:25;94937.97;;;6.68;68.97
14393;BME280;7281;42.678;23.372;2022-12-16T05:17:10;94936.22;;;6.85;68.75
14393;BME280;7281;42.678;23.372;2022-12-16T05:19:56;94960.78;;;6.89;67.75
14393;BME280;7281;42.678;23.372;2022-12-16T05:22:41;94962.19;;;6.80;68.12
14393;BME280;7281;42.678;23.372;2022-12-16T05:25:27;94952.47;;;6.53;68.66
14393;BME280;7281;42.678;23.372;2022-12-16T05:28:13;94969.81;;;6.47;68.77
14393;BME280;7281;42.678;23.372;2022-12-16T05:30:58;94944.56;;;6.25;69.86
14393;BME280;7281;42.678;23.372;2022-12-16T05:33:44;94951.81;;;6.34;69.43
14393;BME280;7281;42.678;23.372;2022-12-16T05:36:29;94971.06;;;6.33;69.10
14393;BME280;7281;42.678;23.372;2022-12-16T05:39:14;94978.13;;;6.84;67.72
14393;BME280;7281;42.678;23.372;2022-12-16T05:42:00;95004.31;;;6.43;71.03
14393;BME280;7281;42.678;23.372;2022-12-16T05:44:46;95003.59;;;5.60;71.67
14393;BME280;7281;42.678;23.372;2022-12-16T05:47:31;94987.22;;;6.35;69.60
14393;BME280;7281;42.678;23.372;2022-12-16T05:50:16;95005.41;;;5.30;72.15
14393;BME280;7281;42.678;23.372;2022-12-16T05:53:08;94985.59;;;5.88;71.21
14393;BME280;7281;42.678;23.372;2022-12-16T05:55:54;94970.13;;;5.52;73.49
14393;BME280;7281;42.678;23.372;2022-12-16T05:58:39;95002.00;;;5.59;73.08
14393;BME280;7281;42.678;23.372;2022-12-16T06:01:25;94949.59;;;5.62;73.79
14393;BME280;7281;42.678;23.372;2022-12-16T06:04:10;95004.84;;;5.87;73.84
14393;BME280;7281;42.678;23.372;2022-12-16T06:06:55;95014.09;;;5.83;73.42
14393;BME280;7281;42.678;23.372;2022-12-16T06:09:41;94995.81;;;6.01;73.22
14393;BME280;7281;42.678;23.372;2022-12-16T06:12:26;95027.31;;;6.46;72.19
14393;BME280;7281;42.678;23.372;2022-12-16T06:15:11;94999.91;;;6.43;72.62
14393;BME280;7281;42.678;23.372;2022-12-16T06:17:57;95018.69;;;6.45;72.65
14393;BME280;7281;42.678;23.372;2022-12-16T06:20:42;95031.94;;;6.44;72.49
14393;BME280;7281;42.678;23.372;2022-12-16T06:23:28;94997.41;;;6.25;72.49
14393;BME280;7281;42.678;23.372;2022-12-16T06:26:14;95030.19;;;6.03;73.60
14393;BME280;7281;42.678;23.372;2022-12-16T06:28:59;95043.38;;;6.31;73.47
14393;BME280;7281;42.678;23.372;2022-12-16T06:31:58;95006.69;;;6.44;72.63
14393;BME280;7281;42.678;23.372;2022-12-16T06:34:43;95036.34;;;6.43;72.72
14393;BME280;7281;42.678;23.372;2022-12-16T06:37:29;95028.31;;;6.45;72.86
14393;BME280;7281;42.678;23.372;2022-12-16T06:40:14;95001.34;;;6.74;72.05
14393;BME280;7281;42.678;23.372;2022-12-16T06:42:59;95002.47;;;6.89;71.20
14393;BME280;7281;42.678;23.372;2022-12-16T06:46:02;95044.47;;;6.35;72.79
14393;BME280;7281;42.678;23.372;2022-12-16T06:48:47;94983.81;;;6.46;73.70
14393;BME280;7281;42.678;23.372;2022-12-16T06:51:32;95024.47;;;6.47;72.54
14393;BME280;7281;42.678;23.372;2022-12-16T06:54:18;94977.34;;;6.72;72.34
14393;BME280;7281;42.678;23.372;2022-12-16T06:57:03;95043.69;;;6.23;73.71
14393;BME280;7281;42.678;23.372;2022-12-16T06:59:48;94977.94;;;6.62;74.10
14393;BME280;7281;42.678;23.372;2022-12-16T07:02:34;95015.06;;;6.69;72.63
14393;BME280;7281;42.678;23.372;2022-12-16T07:05:20;94980.22;;;6.47;73.68
14393;BME280;7281;42.678;23.372;2022-12-16T07:08:05;95036.66;;;6.35;73.97
14393;BME280;7281;42.678;23.372;2022-12-16T07:10:50;94996.03;;;6.57;73.96
14393;BME280;7281;42.678;23.372;2022-12-16T07:13:43;95042.56;;;6.54;72.84
14393;BME280;7281;42.678;23.372;2022-12-16T07:16:28;94991.06;;;6.44;74.40
14393;BME280;7281;42.678;23.372;2022-12-16T07:19:14;95004.44;;;6.36;74.88
14393;BME280;7281;42.678;23.372;2022-12-16T07:22:00;95013.38;;;6.75;73.19
14393;BME280;7281;42.678;23.372;2022-12-16T07:24:45;94996.69;;;6.87;73.86
14393;BME280;7281;42.678;23.372;2022-12-16T07:27:31;95033.91;;;6.99;71.82
14393;BME280;7281;42.678;23.372;2022-12-16T07:30:16;95015.28;;;6.56;73.96
14393;BME280;7281;42.678;23.372;2022-12-16T07:33:02;95014.34;;;6.85;73.23
14393;BME280;7281;42.678;23.372;2022-12-16T07:35:47;94985.22;;;7.00;72.75
14393;BME280;7281;42.678;23.372;2022-12-16T07:38:32;95037.31;;;7.11;71.93
14393;BME280;7281;42.678;23.372;2022-12-16T07:41:18;95026.03;;;7.22;72.43
14393;BME280;7281;42.678;23.372;2022-12-16T07:44:03;94997.50;;;7.28;72.49
14393;BME280;7281;42.678;23.372;2022-12-16T07:46:49;95018.28;;;7.95;70.30
14393;BME280;7281;42.678;23.372;2022-12-16T07:49:34;95011.63;;;7.60;70.52
14393;BME280;7281;42.678;23.372;2022-12-16T07:52:21;95025.94;;;8.02;69.05
14393;BME280;7281;42.678;23.372;2022-12-16T07:55:07;95013.59;;;7.81;69.90
14393;BME280;7281;42.678;23.372;2022-12-16T07:57:52;95014.13;;;8.28;69.38
14393;BME280;7281;42.678;23.372;2022-12-16T08:00:51;95031.59;;;8.27;68.50
14393;BME280;7281;42.678;23.372;2022-12-16T08:03:36;95003.16;;;7.81;70.90
14393;BME280;7281;42.678;23.372;2022-12-16T08:06:22;94978.91;;;7.97;70.40
14393;BME280;7281;42.678;23.372;2022-12-16T08:09:07;95047.91;;;7.89;70.06
14393;BME280;7281;42.678;23.372;2022-12-16T08:11:53;95026.75;;;8.02;69.77
14393;BME280;7281;42.678;23.372;2022-12-16T08:14:38;95010.94;;;8.42;69.28
14393;BME280;7281;42.678;23.372;2022-12-16T08:17:24;95038.25;;;8.06;69.25
14393;BME280;7281;42.678;23.372;2022-12-16T08:20:09;95023.50;;;8.45;68.85
14393;BME280;7281;42.678;23.372;2022-12-16T08:22:54;95004.75;;;8.15;70.42
14393;BME280;7281;42.678;23.372;2022-12-16T08:25:40;95033.72;;;8.13;70.15
14393;BME280;7281;42.678;23.372;2022-12-16T08:28:25;95028.84;;;8.34;70.01
14393;BME280;7281;42.678;23.372;2022-12-16T08:31:10;95025.81;;;8.25;70.13
14393;BME280;7281;42.678;23.372;2022-12-16T08:33:55;95009.84;;;8.38;69.30
14393;BME280;7281;42.678;23.372;2022-12-16T08:36:41;95000.09;;;8.88;68.53
14393;BME280;7281;42.678;23.372;2022-12-16T08:39:26;95019.94;;;8.18;69.67
14393;BME280;7281;42.678;23.372;2022-12-16T08:42:32;95027.72;;;8.46;68.69
14393;BME280;7281;42.678;23.372;2022-12-16T08:45:18;94988.00;;;8.44;69.78
14393;BME280;7281;42.678;23.372;2022-12-16T08:48:04;94984.88;;;8.14;69.45
14393;BME280;7281;42.678;23.372;2022-12-16T08:50:50;94989.56;;;8.45;70.05
14393;BME280;7281;42.678;23.372;2022-12-16T08:53:36;95001.59;;;8.63;69.04
14393;BME280;7281;42.678;23.372;2022-12-16T08:56:21;94993.66;;;8.96;68.88
14393;BME280;7281;42.678;23.372;2022-12-16T08:59:07;94995.75;;;8.39;69.39
14393;BME280;7281;42.678;23.372;2022-12-16T09:01:52;94998.50;;;8.49;70.21
14393;BME280;7281;42.678;23.372;2022-12-16T09:04:38;94964.41;;;9.20;68.09
14393;BME280;7281;42.678;23.372;2022-12-16T09:07:23;95000.16;;;8.22;70.61
14393;BME280;7281;42.678;23.372;2022-12-16T09:10:09;94928.78;;;9.14;69.44
14393;BME280;7281;42.678;23.372;2022-12-16T09:13:11;94979.84;;;8.57;70.37
14393;BME280;7281;42.678;23.372;2022-12-16T09:15:58;94959.59;;;9.61;68.90
14393;BME280;7281;42.678;23.372;2022-12-16T09:18:45;94954.97;;;9.99;67.18
14393;BME280;7281;42.678;23.372;2022-12-16T09:21:31;94944.50;;;10.31;65.99
14393;BME280;7281;42.678;23.372;2022-12-16T09:24:17;94958.72;;;10.08;66.19
14393;BME280;7281;42.678;23.372;2022-12-16T09:27:02;94943.63;;;10.62;64.84
14393;BME280;7281;42.678;23.372;2022-12-16T09:29:48;94960.34;;;9.83;65.37
14393;BME280;7281;42.678;23.372;2022-12-16T09:32:33;94922.47;;;10.69;64.66
14393;BME280;7281;42.678;23.372;2022-12-16T09:35:18;94954.47;;;10.29;65.26
14393;BME280;7281;42.678;23.372;2022-12-16T09:38:03;94869.34;;;10.88;64.11
14393;BME280;7281;42.678;23.372;2022-12-16T09:40:49;94925.66;;;10.81;63.89
14393;BME280;7281;42.678;23.372;2022-12-16T09:46:51;94900.22;;;12.18;61.50
14393;BME280;7281;42.678;23.372;2022-12-16T09:49:48;94912.53;;;12.33;59.54
14393;BME280;7281;42.678;23.372;2022-12-16T09:52:47;94910.84;;;12.82;59.20
14393;BME280;7281;42.678;23.372;2022-12-16T09:55:43;94888.84;;;12.48;59.48
14393;BME280;7281;42.678;23.372;2022-12-16T09:58:35;94903.53;;;12.64;58.70
14393;BME280;7281;42.678;23.372;2022-12-16T10:01:22;94872.56;;;12.41;58.80
14393;BME280;7281;42.678;23.372;2022-12-16T10:04:09;94908.88;;;12.24;58.82
14393;BME280;7281;42.678;23.372;2022-12-16T10:07:07;94886.78;;;13.19;58.15
14393;BME280;7281;42.678;23.372;2022-12-16T10:13:43;94889.63;;;13.28;56.74
14393;BME280;7281;42.678;23.372;2022-12-16T10:16:41;94882.88;;;13.01;57.38
14393;BME280;7281;42.678;23.372;2022-12-16T10:19:40;94916.00;;;13.12;57.19
14393;BME280;7281;42.678;23.372;2022-12-16T10:22:39;94872.75;;;13.29;57.46
14393;BME280;7281;42.678;23.372;2022-12-16T10:25:59;94871.78;;;13.14;56.26
14393;BME280;7281;42.678;23.372;2022-12-16T10:28:51;94896.38;;;13.44;56.58
14393;BME280;7281;42.678;23.372;2022-12-16T10:31:38;94859.94;;;13.61;55.67
14393;BME280;7281;42.678;23.372;2022-12-16T10:34:27;94864.97;;;13.13;57.08
14393;BME280;7281;42.678;23.372;2022-12-16T10:37:26;94858.81;;;13.33;56.01
14393;BME280;7281;42.678;23.372;2022-12-16T10:40:18;94847.31;;;13.14;57.06
14393;BME280;7281;42.678;23.372;2022-12-16T10:43:18;94862.78;;;13.26;55.70
14393;BME280;7281;42.678;23.372;2022-12-16T10:46:12;94850.97;;;13.62;55.73
14393;BME280;7281;42.678;23.372;2022-12-16T10:49:00;94881.19;;;13.69;55.22
14393;BME280;7281;42.678;23.372;2022-12-16T10:51:45;94845.81;;;14.09;55.49
14393;BME280;7281;42.678;23.372;2022-12-16T10:54:40;94859.66;;;14.24;55.37
14393;BME280;7281;42.678;23.372;2022-12-16T11:00:49;94835.72;;;13.59;54.97
14393;BME280;7281;42.678;23.372;2022-12-16T11:03:37;94836.53;;;13.88;55.39
14393;BME280;7281;42.678;23.372;2022-12-16T11:06:37;94831.00;;;13.56;56.22
14393;BME280;7281;42.678;23.372;2022-12-16T11:09:28;94867.97;;;13.79;55.24
14393;BME280;7281;42.678;23.372;2022-12-16T11:18:19;94830.13;;;13.99;54.97
14393;BME280;7281;42.678;23.372;2022-12-16T11:24:16;94837.09;;;14.13;54.30
14393;BME280;7281;42.678;23.372;2022-12-16T11:27:04;94841.53;;;14.47;55.33
14393;BME280;7281;42.678;23.372;2022-12-16T11:29:51;94819.44;;;14.43;55.20
14393;BME280;7281;42.678;23.372;2022-12-16T11:32:40;94825.69;;;14.70;54.80
14393;BME280;7281;42.678;23.372;2022-12-16T11:35:29;94844.38;;;14.27;55.70
14393;BME280;7281;42.678;23.372;2022-12-16T11:38:26;94831.22;;;14.92;53.93
14393;BME280;7281;42.678;23.372;2022-12-16T11:41:34;94822.84;;;15.09;53.96
14393;BME280;7281;42.678;23.372;2022-12-16T11:44:29;94834.31;;;15.37;53.93
14393;BME280;7281;42.678;23.372;2022-12-16T11:50:24;94784.22;;;15.82;52.43
14393;BME280;7281;42.678;23.372;2022-12-16T11:56:24;94801.34;;;17.70;49.06
14393;BME280;7281;42.678;23.372;2022-12-16T11:59:21;94798.72;;;18.31;48.02
14393;BME280;7281;42.678;23.372;2022-12-16T12:02:36;94810.53;;;18.16;46.34
14393;BME280;7281;42.678;23.372;2022-12-16T12:05:33;94802.44;;;18.52;46.96
14393;BME280;7281;42.678;23.372;2022-12-16T12:08:27;94765.56;;;19.15;45.07
14393;BME280;7281;42.678;23.372;2022-12-16T12:11:21;94782.91;;;19.13;44.99
14393;BME280;7281;42.678;23.372;2022-12-16T12:17:33;94792.94;;;19.42;43.92
14393;BME280;7281;42.678;23.372;2022-12-16T12:23:39;94766.53;;;18.46;45.47
14393;BME280;7281;42.678;23.372;2022-12-16T12:26:32;94776.69;;;18.22;46.21
14393;BME280;7281;42.678;23.372;2022-12-16T12:32:34;94788.66;;;18.81;45.75
14393;BME280;7281;42.678;23.372;2022-12-16T12:35:36;94763.88;;;19.37;43.74
14393;BME280;7281;42.678;23.372;2022-12-16T12:38:34;94736.84;;;20.15;43.03
14393;BME280;7281;42.678;23.372;2022-12-16T12:41:27;94755.25;;;20.95;41.26
14393;BME280;7281;42.678;23.372;2022-12-16T12:44:35;94762.00;;;20.72;41.29
14393;BME280;7281;42.678;23.372;2022-12-16T12:47:26;94748.81;;;19.92;42.56
14393;BME280;7281;42.678;23.372;2022-12-16T12:50:24;94757.06;;;18.71;43.88
14393;BME280;7281;42.678;23.372;2022-12-16T12:53:36;94752.00;;;19.43;43.19
14393;BME280;7281;42.678;23.372;2022-12-16T13:02:42;94757.28;;;20.69;40.86
14393;BME280;7281;42.678;23.372;2022-12-16T13:05:32;94747.00;;;20.88;40.27
14393;BME280;7281;42.678;23.372;2022-12-16T13:11:36;94753.88;;;21.18;39.85
14393;BME280;7281;42.678;23.372;2022-12-16T13:17:20;94749.94;;;21.78;38.33
14393;BME280;7281;42.678;23.372;2022-12-16T13:20:35;94705.06;;;20.56;40.23
14393;BME280;7281;42.678;23.372;2022-12-16T13:23:29;94736.69;;;20.11;41.84
14393;BME280;7281;42.678;23.372;2022-12-16T13:26:21;94774.50;;;18.55;43.96
14393;BME280;7281;42.678;23.372;2022-12-16T13:29:26;94731.84;;;17.73;46.57
14393;BME280;7281;42.678;23.372;2022-12-16T13:32:18;94743.59;;;17.22;47.65
14393;BME280;7281;42.678;23.372;2022-12-16T13:38:01;94758.56;;;17.18;48.25
14393;BME280;7281;42.678;23.372;2022-12-16T13:40:55;94758.50;;;16.96;49.67
14393;BME280;7281;42.678;23.372;2022-12-16T13:43:54;94786.97;;;16.77;49.85
14393;BME280;7281;42.678;23.372;2022-12-16T13:46:45;94784.59;;;16.35;51.51
14393;BME280;7281;42.678;23.372;2022-12-16T13:49:51;94785.28;;;16.41;50.95
14393;BME280;7281;42.678;23.372;2022-12-16T13:55:34;94781.16;;;16.21;51.79
14393;BME280;7281;42.678;23.372;2022-12-16T13:58:46;94802.19;;;15.67;52.89
14393;BME280;7281;42.678;23.372;2022-12-16T14:01:51;94769.16;;;15.83;53.09
14393;BME280;7281;42.678;23.372;2022-12-16T14:07:29;94788.16;;;15.85;52.71
14393;BME280;7281;42.678;23.372;2022-12-16T14:10:25;94812.19;;;15.70;53.52
14393;BME280;7281;42.678;23.372;2022-12-16T14:16:34;94840.53;;;15.64;53.41
14393;BME280;7281;42.678;23.372;2022-12-16T14:20:06;94784.75;;;15.66;54.35
14393;BME280;7281;42.678;23.372;2022-12-16T14:26:24;94820.19;;;15.65;54.60
14393;BME280;7281;42.678;23.372;2022-12-16T14:32:25;94818.88;;;15.81;54.34
14393;BME280;7281;42.678;23.372;2022-12-16T14:35:13;94813.19;;;15.37;55.48
14393;BME280;7281;42.678;23.372;2022-12-16T14:38:27;94824.47;;;15.23;55.51
14393;BME280;7281;42.678;23.372;2022-12-16T14:41:15;94822.56;;;15.10;56.37
14393;BME280;7281;42.678;23.372;2022-12-16T14:44:05;94808.41;;;15.20;56.53
14393;BME280;7281;42.678;23.372;2022-12-16T14:47:01;94827.50;;;14.93;57.21
14393;BME280;7281;42.678;23.372;2022-12-16T14:49:53;94822.63;;;15.43;56.00
14393;BME280;7281;42.678;23.372;2022-12-16T14:52:39;94779.34;;;15.39;55.45
14393;BME280;7281;42.678;23.372;2022-12-16T14:55:33;94836.13;;;14.80;58.16
14393;BME280;7281;42.678;23.372;2022-12-16T14:58:21;94819.13;;;15.10;57.54
14393;BME280;7281;42.678;23.372;2022-12-16T15:01:20;94824.03;;;15.16;57.02
14393;BME280;7281;42.678;23.372;2022-12-16T15:04:17;94826.63;;;15.21;57.01
14393;BME280;7281;42.678;23.372;2022-12-16T15:07:07;94827.75;;;15.15;55.64
14393;BME280;7281;42.678;23.372;2022-12-16T15:09:58;94804.13;;;14.87;56.55
14393;BME280;7281;42.678;23.372;2022-12-16T15:12:45;94837.97;;;14.04;59.45
14393;BME280;7281;42.678;23.372;2022-12-16T15:15:42;94818.97;;;14.59;58.53
14393;BME280;7281;42.678;23.372;2022-12-16T15:18:37;94818.63;;;14.42;58.10
14393;BME280;7281;42.678;23.372;2022-12-16T15:21:23;94851.00;;;14.19;59.58
14393;BME280;7281;42.678;23.372;2022-12-16T15:24:09;94798.44;;;14.56;58.76
14393;BME280;7281;42.678;23.372;2022-12-16T15:27:14;94823.47;;;14.35;58.80
14393;BME280;7281;42.678;23.372;2022-12-16T15:30:46;94819.81;;;14.55;58.96
14393;BME280;7281;42.678;23.372;2022-12-16T15:33:36;94843.00;;;14.58;58.68
14393;BME280;7281;42.678;23.372;2022-12-16T15:36:33;94857.22;;;14.33;58.87
14393;BME280;7281;42.678;23.372;2022-12-16T15:39:34;94806.81;;;14.40;58.91
14393;BME280;7281;42.678;23.372;2022-12-16T15:42:23;94858.59;;;13.97;60.03
14393;BME280;7281;42.678;23.372;2022-12-16T15:45:29;94838.81;;;14.28;58.88
14393;BME280;7281;42.678;23.372;2022-12-16T15:48:28;94850.94;;;14.29;59.01
14393;BME280;7281;42.678;23.372;2022-12-16T15:51:38;94839.28;;;14.35;58.41
14393;BME280;7281;42.678;23.372;2022-12-16T15:54:25;94855.16;;;14.30;58.13
14393;BME280;7281;42.678;23.372;2022-12-16T15:57:34;94844.94;;;14.47;57.48
14393;BME280;7281;42.678;23.372;2022-12-16T16:00:25;94867.09;;;14.17;57.68
14393;BME280;7281;42.678;23.372;2022-12-16T16:03:34;94864.25;;;14.14;57.67
14393;BME280;7281;42.678;23.372;2022-12-16T16:06:23;94871.06;;;14.15;57.78
14393;BME280;7281;42.678;23.372;2022-12-16T16:09:23;94854.75;;;13.84;57.86
14393;BME280;7281;42.678;23.372;2022-12-16T16:12:12;94866.81;;;14.19;57.98
14393;BME280;7281;42.678;23.372;2022-12-16T16:14:58;94874.94;;;14.28;57.75
14393;BME280;7281;42.678;23.372;2022-12-16T16:17:43;94852.00;;;14.52;56.78
14393;BME280;7281;42.678;23.372;2022-12-16T16:20:30;94860.72;;;14.29;57.17
14393;BME280;7281;42.678;23.372;2022-12-16T16:23:16;94857.22;;;14.33;57.00
14393;BME280;7281;42.678;23.372;2022-12-16T16:26:02;94871.28;;;14.52;56.45